Time,TemperatureF,DewpointF,PressureIn,WindDirection,WindDirectionDegrees,WindSpeedMPH,WindSpeedGustMPH,Humidity,HourlyPrecipIn,Conditions,Clouds,dailyrainin,SoftwareType,DateUTC
2013-01-14 00:02:00,47.1,46.0,30.00,SSW,213,1.0,1.0,96,0.00,,,0.00,Wunderground v.1.15,2013-01-14 05:02:00,
2013-01-14 00:04:00,47.2,46.1,30.00,SSW,213,1.0,1.0,96,0.00,,,0.00,Wunderground v.1.15,2013-01-14 05:04:00,
2013-01-14 00:05:00,47.2,46.1,30.00,SSW,213,1.0,1.0,96,0.00,,,0.00,Wunderground v.1.15,2013-01-14 05:05:00,
2013-01-14 00:11:00,47.2,46.1,30.00,SSW,213,1.0,2.0,96,0.00,,,0.00,Wunderground v.1.15,2013-01-14 05:11:00,
2013-01-14 00:16:00,47.2,46.4,30.00,SSW,210,1.0,2.0,97,0.00,,,0.00,Wunderground v.1.15,2013-01-14 05:16:00,
2013-01-14 00:22:00,47.1,46.0,29.99,SSW,210,1.0,1.0,96,0.00,,,0.00,Wunderground v.1.15,2013-01-14 05:22:00,
2013-01-14 00:29:00,47.0,45.9,30.00,SW,216,1.0,3.0,96,0.00,,,0.00,Wunderground v.1.15,2013-01-14 05:29:00,
2013-01-14 00:34:00,47.1,46.3,29.99,SW,216,1.0,1.0,97,0.00,,,0.00,Wunderground v.1.15,2013-01-14 05:34:00,
2013-01-14 00:39:00,47.2,46.4,29.99,SW,216,0.0,1.0,97,0.00,,,0.00,Wunderground v.1.15,2013-01-14 05:39:00,
2013-01-14 00:45:00,47.1,46.3,29.99,SW,216,0.0,0.0,97,0.00,,,0.00,Wunderground v.1.15,2013-01-14 05:45:00,
2013-01-14 00:51:00,47.1,46.0,29.98,SW,216,0.0,0.0,96,0.00,,,0.00,Wunderground v.1.15,2013-01-14 05:51:00,
2013-01-14 00:57:00,47.1,46.0,29.99,SW,216,0.0,0.0,96,0.00,,,0.00,Wunderground v.1.15,2013-01-14 05:57:00,
2013-01-14 01:03:00,47.0,45.9,29.99,SW,216,0.0,0.0,96,0.00,,,0.00,Wunderground v.1.15,2013-01-14 06:03:00,
2013-01-14 01:09:00,47.1,46.3,29.99,SW,216,0.0,0.0,97,0.00,,,0.00,Wunderground v.1.15,2013-01-14 06:09:00,
2013-01-14 01:14:00,47.2,46.4,29.99,SW,216,0.0,0.0,97,0.00,,,0.00,Wunderground v.1.15,2013-01-14 06:14:00,
2013-01-14 01:20:00,47.2,46.4,30.00,SW,216,0.0,0.0,97,0.00,,,0.00,Wunderground v.1.15,2013-01-14 06:20:00,
2013-01-14 01:26:00,47.3,46.5,30.00,SW,216,0.0,1.0,97,0.00,,,0.00,Wunderground v.1.15,2013-01-14 06:26:00,
2013-01-14 01:32:00,47.4,46.6,29.99,SW,216,0.0,0.0,97,0.00,,,0.00,Wunderground v.1.15,2013-01-14 06:32:00,
2013-01-14 01:37:00,47.5,46.7,30.00,SW,216,0.0,0.0,97,0.00,,,0.00,Wunderground v.1.15,2013-01-14 06:37:00,
2013-01-14 01:42:00,47.6,46.8,30.00,SW,216,0.0,0.0,97,0.00,,,0.00,Wunderground v.1.15,2013-01-14 06:42:00,
2013-01-14 01:48:00,47.7,46.6,30.00,SW,216,0.0,0.0,96,0.00,,,0.00,Wunderground v.1.15,2013-01-14 06:48:00,
2013-01-14 01:53:00,47.7,46.6,30.00,SW,216,0.0,0.0,96,0.00,,,0.00,Wunderground v.1.15,2013-01-14 06:53:00,
2013-01-14 01:59:00,47.8,46.7,30.00,SW,216,0.0,0.0,96,0.00,,,0.00,Wunderground v.1.15,2013-01-14 06:59:00,
2013-01-14 02:05:00,47.9,46.8,30.00,SW,216,0.0,0.0,96,0.00,,,0.00,Wunderground v.1.15,2013-01-14 07:05:00,
2013-01-14 02:10:00,48.0,46.9,30.00,SW,216,0.0,0.0,96,0.00,,,0.00,Wunderground v.1.15,2013-01-14 07:10:00,
2013-01-14 02:16:00,48.1,46.7,30.00,SW,216,0.0,0.0,95,0.00,,,0.00,Wunderground v.1.15,2013-01-14 07:16:00,
2013-01-14 02:22:00,48.2,46.8,30.00,SW,216,0.0,0.0,95,0.00,,,0.00,Wunderground v.1.15,2013-01-14 07:22:00,
2013-01-14 02:27:00,48.2,46.8,30.00,SW,216,0.0,0.0,95,0.00,,,0.00,Wunderground v.1.15,2013-01-14 07:27:00,
2013-01-14 02:34:00,48.2,46.8,30.00,SW,216,0.0,0.0,95,0.00,,,0.00,Wunderground v.1.15,2013-01-14 07:34:00,
2013-01-14 02:39:00,48.3,46.9,30.00,SW,216,0.0,0.0,95,0.00,,,0.00,Wunderground v.1.15,2013-01-14 07:39:00,
2013-01-14 02:44:00,48.3,46.9,30.00,SW,216,0.0,0.0,95,0.00,,,0.00,Wunderground v.1.15,2013-01-14 07:44:00,
2013-01-14 02:50:00,48.4,47.0,29.99,SW,216,0.0,0.0,95,0.00,,,0.00,Wunderground v.1.15,2013-01-14 07:50:00,
2013-01-14 02:55:00,48.1,46.5,30.00,SW,216,0.0,2.0,94,0.00,,,0.00,Wunderground v.1.15,2013-01-14 07:55:00,
2013-01-14 03:00:00,48.1,47.0,29.99,SW,216,0.0,0.0,96,0.00,,,0.00,Wunderground v.1.15,2013-01-14 08:00:00,
2013-01-14 03:06:00,48.1,47.0,29.99,SW,216,0.0,0.0,96,0.00,,,0.00,Wunderground v.1.15,2013-01-14 08:06:00,
2013-01-14 03:11:00,48.0,46.6,29.99,SW,216,0.0,0.0,95,0.00,,,0.00,Wunderground v.1.15,2013-01-14 08:11:00,
2013-01-14 03:17:00,47.9,46.5,29.99,SW,216,0.0,0.0,95,0.00,,,0.00,Wunderground v.1.15,2013-01-14 08:17:00,
2013-01-14 03:22:00,47.9,46.8,29.99,SW,216,0.0,1.0,96,0.00,,,0.00,Wunderground v.1.15,2013-01-14 08:22:00,
2013-01-14 03:28:00,47.9,46.8,29.99,SW,216,0.0,1.0,96,0.00,,,0.00,Wunderground v.1.15,2013-01-14 08:28:00,
2013-01-14 03:34:00,47.8,46.7,29.99,SW,216,0.0,2.0,96,0.00,,,0.00,Wunderground v.1.15,2013-01-14 08:34:00,
2013-01-14 03:39:00,47.8,46.7,29.99,SW,216,1.0,2.0,96,0.00,,,0.00,Wunderground v.1.15,2013-01-14 08:39:00,
2013-01-14 03:45:00,47.9,46.8,29.99,SW,216,0.0,1.0,96,0.00,,,0.00,Wunderground v.1.15,2013-01-14 08:45:00,
2013-01-14 03:51:00,48.0,46.9,29.99,SW,216,0.0,0.0,96,0.00,,,0.00,Wunderground v.1.15,2013-01-14 08:51:00,
2013-01-14 03:56:00,48.0,46.9,29.99,SW,216,0.0,0.0,96,0.00,,,0.00,Wunderground v.1.15,2013-01-14 08:56:00,
2013-01-14 04:02:00,48.0,46.9,29.99,SW,216,0.0,0.0,96,0.00,,,0.00,Wunderground v.1.15,2013-01-14 09:02:00,
2013-01-14 04:08:00,48.2,47.1,29.99,SW,216,0.0,0.0,96,0.00,,,0.00,Wunderground v.1.15,2013-01-14 09:08:00,
2013-01-14 04:14:00,48.2,47.1,29.99,SW,216,0.0,0.0,96,0.00,,,0.00,Wunderground v.1.15,2013-01-14 09:14:00,
2013-01-14 04:20:00,48.2,46.8,29.99,SW,216,0.0,0.0,95,0.00,,,0.00,Wunderground v.1.15,2013-01-14 09:20:00,
2013-01-14 04:26:00,48.1,46.7,29.99,SW,216,0.0,0.0,95,0.00,,,0.00,Wunderground v.1.15,2013-01-14 09:26:00,
2013-01-14 04:31:00,47.9,46.5,29.99,SW,216,0.0,0.0,95,0.00,,,0.00,Wunderground v.1.15,2013-01-14 09:31:00,
2013-01-14 04:37:00,48.0,46.6,29.99,SW,216,0.0,0.0,95,0.00,,,0.00,Wunderground v.1.15,2013-01-14 09:37:00,
2013-01-14 04:42:00,48.1,47.0,29.98,SW,216,0.0,0.0,96,0.00,,,0.00,Wunderground v.1.15,2013-01-14 09:42:00,
2013-01-14 04:48:00,48.0,46.6,29.98,SW,216,0.0,0.0,95,0.00,,,0.00,Wunderground v.1.15,2013-01-14 09:48:00,
2013-01-14 04:54:00,47.9,46.5,29.97,SW,216,0.0,1.0,95,0.00,,,0.00,Wunderground v.1.15,2013-01-14 09:54:00,
2013-01-14 04:59:00,47.8,46.4,29.97,SW,216,0.0,1.0,95,0.00,,,0.00,Wunderground v.1.15,2013-01-14 09:59:00,
2013-01-14 05:04:00,47.8,46.4,29.97,SW,216,0.0,0.0,95,0.00,,,0.00,Wunderground v.1.15,2013-01-14 10:04:00,
2013-01-14 05:10:00,47.8,46.4,29.96,SW,216,0.0,0.0,95,0.00,,,0.00,Wunderground v.1.15,2013-01-14 10:10:00,
2013-01-14 05:15:00,47.7,46.3,29.97,SW,216,0.0,0.0,95,0.00,,,0.00,Wunderground v.1.15,2013-01-14 10:15:00,
2013-01-14 05:21:00,47.7,46.3,29.96,SW,216,0.0,0.0,95,0.00,,,0.00,Wunderground v.1.15,2013-01-14 10:21:00,
2013-01-14 05:27:00,47.6,46.2,29.96,SW,216,0.0,0.0,95,0.00,,,0.00,Wunderground v.1.15,2013-01-14 10:27:00,
2013-01-14 05:32:00,47.5,46.1,29.96,SW,216,0.0,0.0,95,0.00,,,0.00,Wunderground v.1.15,2013-01-14 10:32:00,
2013-01-14 05:38:00,47.5,46.4,29.95,SW,216,0.0,0.0,96,0.00,,,0.00,Wunderground v.1.15,2013-01-14 10:38:00,
2013-01-14 05:43:00,47.6,46.5,29.95,SW,216,0.0,0.0,96,0.00,,,0.00,Wunderground v.1.15,2013-01-14 10:43:00,
2013-01-14 05:49:00,47.5,46.1,29.93,SW,216,0.0,1.0,95,0.00,,,0.00,Wunderground v.1.15,2013-01-14 10:49:00,
2013-01-14 05:54:00,47.1,45.7,29.91,SSE,164,1.0,3.0,95,0.00,,,0.00,Wunderground v.1.15,2013-01-14 10:54:00,
2013-01-14 06:00:00,47.1,46.3,29.89,SSE,151,2.0,2.0,97,0.00,,,0.00,Wunderground v.1.15,2013-01-14 11:00:00,
2013-01-14 06:06:00,47.4,46.9,29.88,SE,126,2.0,2.0,98,0.00,,,0.00,Wunderground v.1.15,2013-01-14 11:06:00,
2013-01-14 06:12:00,47.9,47.6,29.91,SSE,167,1.0,2.0,99,0.00,,,0.00,Wunderground v.1.15,2013-01-14 11:12:00,
2013-01-14 06:18:00,48.1,47.8,29.96,WNW,287,2.0,6.0,99,0.00,,,0.00,Wunderground v.1.15,2013-01-14 11:18:00,
2013-01-14 06:23:00,48.0,47.7,29.92,WNW,287,2.0,2.0,99,0.00,,,0.00,Wunderground v.1.15,2013-01-14 11:23:00,
2013-01-14 06:29:00,47.9,47.4,29.93,WNW,287,1.0,2.0,98,0.00,,,0.00,Wunderground v.1.15,2013-01-14 11:29:00,
2013-01-14 06:34:00,48.0,47.7,29.98,West,278,2.0,6.0,99,0.00,,,0.00,Wunderground v.1.15,2013-01-14 11:34:00,
2013-01-14 06:39:00,48.1,47.8,29.97,WNW,294,5.0,9.0,99,0.00,,,0.00,Wunderground v.1.15,2013-01-14 11:39:00,
2013-01-14 06:45:00,48.3,48.0,29.96,West,263,3.0,5.0,99,0.00,,,0.00,Wunderground v.1.15,2013-01-14 11:45:00,
2013-01-14 06:50:00,48.4,48.1,29.98,WNW,293,2.0,2.0,99,0.00,,,0.00,Wunderground v.1.15,2013-01-14 11:50:00,
2013-01-14 06:56:00,48.6,48.3,29.98,West,270,3.0,5.0,99,0.00,,,0.00,Wunderground v.1.15,2013-01-14 11:56:00,
2013-01-14 07:01:00,48.7,48.4,29.98,West,276,2.0,2.0,99,0.00,,,0.00,Wunderground v.1.15,2013-01-14 12:01:00,
2013-01-14 07:07:00,48.8,48.5,29.98,West,276,1.0,2.0,99,0.00,,,0.00,Wunderground v.1.15,2013-01-14 12:07:00,
2013-01-14 07:13:00,48.7,48.4,29.99,WSW,257,1.0,4.0,99,0.00,,,0.00,Wunderground v.1.15,2013-01-14 12:13:00,
2013-01-14 07:18:00,48.6,48.3,30.01,SW,236,3.0,5.0,99,0.00,,,0.00,Wunderground v.1.15,2013-01-14 12:18:00,
2013-01-14 07:24:00,48.5,48.2,30.00,SW,236,2.0,3.0,99,0.00,,,0.00,Wunderground v.1.15,2013-01-14 12:24:00,
2013-01-14 07:29:00,48.4,48.1,30.00,NW,315,1.0,3.0,99,0.00,,,0.00,Wunderground v.1.15,2013-01-14 12:29:00,
2013-01-14 07:35:00,48.2,47.9,30.00,South,188,1.0,2.0,99,0.00,,,0.00,Wunderground v.1.15,2013-01-14 12:35:00,
2013-01-14 07:40:00,48.2,47.9,30.00,South,188,1.0,1.0,99,0.00,,,0.00,Wunderground v.1.15,2013-01-14 12:40:00,
2013-01-14 07:46:00,48.2,47.9,30.01,South,188,1.0,2.0,99,0.00,,,0.00,Wunderground v.1.15,2013-01-14 12:46:00,
2013-01-14 07:51:00,48.2,47.9,30.00,South,188,1.0,1.0,99,0.00,,,0.00,Wunderground v.1.15,2013-01-14 12:51:00,
2013-01-14 07:56:00,48.0,47.7,30.01,South,188,0.0,1.0,99,0.00,,,0.00,Wunderground v.1.15,2013-01-14 12:56:00,
2013-01-14 08:02:00,48.1,47.8,30.01,South,188,0.0,0.0,99,0.00,,,0.00,Wunderground v.1.15,2013-01-14 13:02:00,
2013-01-14 08:08:00,48.1,47.8,30.01,South,188,0.0,0.0,99,0.00,,,0.00,Wunderground v.1.15,2013-01-14 13:08:00,
2013-01-14 08:14:00,48.2,47.9,30.01,South,188,0.0,0.0,99,0.00,,,0.00,Wunderground v.1.15,2013-01-14 13:14:00,
2013-01-14 08:20:00,48.4,48.1,30.01,South,188,0.0,0.0,99,0.00,,,0.00,Wunderground v.1.15,2013-01-14 13:20:00,
2013-01-14 08:26:00,48.5,48.0,30.01,South,188,0.0,0.0,98,0.00,,,0.00,Wunderground v.1.15,2013-01-14 13:26:00,
2013-01-14 08:32:00,48.5,48.0,30.01,South,188,0.0,0.0,98,0.00,,,0.00,Wunderground v.1.15,2013-01-14 13:32:00,
2013-01-14 08:37:00,48.6,48.1,30.01,South,188,0.0,0.0,98,0.00,,,0.00,Wunderground v.1.15,2013-01-14 13:37:00,
2013-01-14 08:43:00,48.8,48.3,30.01,South,188,0.0,0.0,98,0.00,,,0.00,Wunderground v.1.15,2013-01-14 13:43:00,
2013-01-14 08:49:00,49.0,48.5,30.02,South,188,0.0,1.0,98,0.00,,,0.00,Wunderground v.1.15,2013-01-14 13:49:00,
2013-01-14 08:55:00,49.2,48.7,30.02,West,277,0.0,2.0,98,0.00,,,0.00,Wunderground v.1.15,2013-01-14 13:55:00,
2013-01-14 09:00:00,49.4,48.9,30.02,West,269,1.0,1.0,98,0.00,,,0.00,Wunderground v.1.15,2013-01-14 14:00:00,
2013-01-14 09:06:00,49.6,49.1,30.02,West,276,1.0,2.0,98,0.00,,,0.00,Wunderground v.1.15,2013-01-14 14:06:00,
2013-01-14 09:12:00,49.8,49.5,30.03,West,279,2.0,3.0,99,0.00,,,0.00,Wunderground v.1.15,2013-01-14 14:12:00,
2013-01-14 09:19:00,50.0,49.7,30.04,WNW,286,2.0,4.0,99,0.00,,,0.00,Wunderground v.1.15,2013-01-14 14:19:00,
2013-01-14 09:24:00,50.1,49.6,30.04,West,266,3.0,5.0,98,0.00,,,0.00,Wunderground v.1.15,2013-01-14 14:24:00,
2013-01-14 09:29:00,50.1,49.6,30.04,West,281,4.0,8.0,98,0.00,,,0.00,Wunderground v.1.15,2013-01-14 14:29:00,
2013-01-14 09:35:00,50.2,49.7,30.05,NW,313,3.0,4.0,98,0.00,,,0.00,Wunderground v.1.15,2013-01-14 14:35:00,
2013-01-14 09:41:00,50.3,50.0,30.05,West,280,3.0,5.0,99,0.00,,,0.00,Wunderground v.1.15,2013-01-14 14:41:00,
2013-01-14 09:46:00,50.5,50.2,30.05,WNW,292,2.0,5.0,99,0.00,,,0.00,Wunderground v.1.15,2013-01-14 14:46:00,
2013-01-14 09:51:00,50.8,50.5,30.05,WSW,246,1.0,2.0,99,0.00,,,0.00,Wunderground v.1.15,2013-01-14 14:51:00,
2013-01-14 09:57:00,51.1,50.8,30.05,WNW,286,0.0,2.0,99,0.00,,,0.00,Wunderground v.1.15,2013-01-14 14:57:00,
2013-01-14 10:02:00,51.4,51.1,30.04,NW,305,1.0,4.0,99,0.00,,,0.00,Wunderground v.1.15,2013-01-14 15:02:00,
2013-01-14 10:07:00,51.6,51.1,30.04,West,263,3.0,4.0,98,0.00,,,0.00,Wunderground v.1.15,2013-01-14 15:07:00,
2013-01-14 10:13:00,51.8,51.3,30.04,West,276,3.0,4.0,98,0.00,,,0.00,Wunderground v.1.15,2013-01-14 15:13:00,
2013-01-14 10:19:00,52.0,51.2,30.04,West,278,2.0,4.0,97,0.00,,,0.00,Wunderground v.1.15,2013-01-14 15:19:00,
2013-01-14 10:25:00,52.3,51.5,30.05,WNW,294,2.0,4.0,97,0.00,,,0.00,Wunderground v.1.15,2013-01-14 15:25:00,
2013-01-14 10:31:00,52.5,51.4,30.05,West,273,3.0,4.0,96,0.00,,,0.00,Wunderground v.1.15,2013-01-14 15:31:00,
2013-01-14 10:37:00,52.6,51.5,30.05,WNW,290,4.0,5.0,96,0.00,,,0.00,Wunderground v.1.15,2013-01-14 15:37:00,
2013-01-14 10:42:00,52.7,51.3,30.05,WNW,293,4.0,5.0,95,0.00,,,0.00,Wunderground v.1.15,2013-01-14 15:42:00,
2013-01-14 10:48:00,52.8,51.4,30.05,WNW,288,3.0,5.0,95,0.00,,,0.00,Wunderground v.1.15,2013-01-14 15:48:00,
2013-01-14 10:54:00,53.0,51.3,30.04,WNW,296,2.0,5.0,94,0.00,,,0.00,Wunderground v.1.15,2013-01-14 15:54:00,
2013-01-14 11:00:00,53.2,51.5,30.04,WNW,299,2.0,3.0,94,0.00,,,0.00,Wunderground v.1.15,2013-01-14 16:00:00,
2013-01-14 11:06:00,53.4,51.7,30.04,WNW,284,2.0,4.0,94,0.00,,,0.00,Wunderground v.1.15,2013-01-14 16:06:00,
2013-01-14 11:11:00,53.6,51.6,30.04,NW,307,2.0,2.0,93,0.00,,,0.00,Wunderground v.1.15,2013-01-14 16:11:00,
2013-01-14 11:17:00,53.9,51.6,30.04,West,278,3.0,5.0,92,0.00,,,0.00,Wunderground v.1.15,2013-01-14 16:17:00,
2013-01-14 11:22:00,54.1,51.5,30.04,West,270,4.0,7.0,91,0.00,,,0.00,Wunderground v.1.15,2013-01-14 16:22:00,
2013-01-14 11:29:00,54.3,51.1,30.05,West,281,5.0,10.0,89,0.00,,,0.00,Wunderground v.1.15,2013-01-14 16:29:00,
2013-01-14 11:34:00,54.5,51.3,30.05,West,265,6.0,9.0,89,0.00,,,0.00,Wunderground v.1.15,2013-01-14 16:34:00,
2013-01-14 11:39:00,54.7,50.9,30.05,NW,313,5.0,9.0,87,0.00,,,0.00,Wunderground v.1.15,2013-01-14 16:39:00,
2013-01-14 11:45:00,55.0,51.5,30.05,West,281,4.0,8.0,88,0.00,,,0.00,Wunderground v.1.15,2013-01-14 16:45:00,
2013-01-14 11:50:00,55.6,51.2,30.05,WNW,292,4.0,4.0,85,0.00,,,0.00,Wunderground v.1.15,2013-01-14 16:50:00,
2013-01-14 11:56:00,56.0,51.2,30.06,WSW,244,5.0,9.0,84,0.00,,,0.00,Wunderground v.1.15,2013-01-14 16:56:00,
2013-01-14 12:01:00,56.1,51.3,30.05,NW,310,6.0,6.0,84,0.00,,,0.00,Wunderground v.1.15,2013-01-14 17:01:00,
2013-01-14 12:07:00,56.1,50.7,30.06,WNW,292,5.0,9.0,82,0.00,,,0.00,Wunderground v.1.15,2013-01-14 17:07:00,
2013-01-14 12:12:00,56.0,49.9,30.06,West,260,6.0,16.0,80,0.00,,,0.00,Wunderground v.1.15,2013-01-14 17:12:00,
2013-01-14 12:18:00,55.5,49.1,30.05,West,261,9.0,16.0,79,0.00,,,0.00,Wunderground v.1.15,2013-01-14 17:18:00,
2013-01-14 12:24:00,55.2,49.1,30.05,WNW,290,8.0,13.0,80,0.00,,,0.00,Wunderground v.1.15,2013-01-14 17:24:00,
2013-01-14 12:29:00,54.9,48.8,30.05,WNW,287,8.0,13.0,80,0.00,,,0.00,Wunderground v.1.15,2013-01-14 17:29:00,
2013-01-14 12:35:00,54.8,48.7,30.05,WNW,292,6.0,8.0,80,0.00,,,0.00,Wunderground v.1.15,2013-01-14 17:35:00,
2013-01-14 12:41:00,54.6,48.2,30.07,WNW,290,7.0,8.0,79,0.00,,,0.00,Wunderground v.1.15,2013-01-14 17:41:00,
2013-01-14 12:46:00,54.4,48.0,30.07,WNW,299,7.0,14.0,79,0.00,,,0.00,Wunderground v.1.15,2013-01-14 17:46:00,
2013-01-14 12:52:00,54.3,47.9,30.06,NW,306,7.0,9.0,79,0.00,,,0.00,Wunderground v.1.15,2013-01-14 17:52:00,
2013-01-14 12:58:00,54.3,47.6,30.06,WNW,294,5.0,9.0,78,0.00,,,0.00,Wunderground v.1.15,2013-01-14 17:58:00,
2013-01-14 13:04:00,54.3,47.2,30.05,NW,309,5.0,5.0,77,0.00,,,0.00,Wunderground v.1.15,2013-01-14 18:04:00,
2013-01-14 13:09:00,54.4,47.0,30.06,NW,305,4.0,7.0,76,0.00,,,0.00,Wunderground v.1.15,2013-01-14 18:09:00,
2013-01-14 13:14:00,54.5,46.4,30.06,WNW,290,4.0,8.0,74,0.00,,,0.00,Wunderground v.1.15,2013-01-14 18:14:00,
2013-01-14 13:20:00,54.5,45.7,30.06,WNW,290,6.0,7.0,72,0.00,,,0.00,Wunderground v.1.15,2013-01-14 18:20:00,
2013-01-14 13:25:00,54.5,45.7,30.06,NW,305,7.0,10.0,72,0.00,,,0.00,Wunderground v.1.15,2013-01-14 18:25:00,
2013-01-14 13:31:00,54.6,45.0,30.06,WSW,253,6.0,10.0,70,0.00,,,0.00,Wunderground v.1.15,2013-01-14 18:31:00,
2013-01-14 13:37:00,54.7,45.5,30.06,WNW,300,6.0,10.0,71,0.00,,,0.00,Wunderground v.1.15,2013-01-14 18:37:00,
2013-01-14 13:42:00,54.7,45.8,30.08,NW,309,6.0,6.0,72,0.00,,,0.00,Wunderground v.1.15,2013-01-14 18:42:00,
2013-01-14 13:48:00,54.6,45.0,30.07,WNW,285,5.0,9.0,70,0.00,,,0.00,Wunderground v.1.15,2013-01-14 18:48:00,
2013-01-14 13:54:00,54.5,44.9,30.07,WNW,286,5.0,6.0,70,0.00,,,0.00,Wunderground v.1.15,2013-01-14 18:54:00,
2013-01-14 13:59:00,54.4,44.8,30.06,WNW,291,5.0,9.0,70,0.00,,,0.00,Wunderground v.1.15,2013-01-14 18:59:00,
2013-01-14 14:05:00,54.4,44.4,30.07,NW,307,4.0,7.0,69,0.00,,,0.00,Wunderground v.1.15,2013-01-14 19:05:00,
2013-01-14 14:11:00,54.3,44.3,30.07,NNW,328,4.0,8.0,69,0.00,,,0.00,Wunderground v.1.15,2013-01-14 19:11:00,
2013-01-14 14:16:00,54.3,44.7,30.06,WNW,301,3.0,8.0,70,0.00,,,0.00,Wunderground v.1.15,2013-01-14 19:16:00,
2013-01-14 14:22:00,54.4,44.8,30.07,NW,325,2.0,4.0,70,0.00,,,0.00,Wunderground v.1.15,2013-01-14 19:22:00,
2013-01-14 14:27:00,54.3,46.2,30.08,NW,319,3.0,7.0,74,0.00,,,0.00,Wunderground v.1.15,2013-01-14 19:27:00,
2013-01-14 14:34:00,54.1,47.7,30.09,WNW,302,4.0,6.0,79,0.00,,,0.00,Wunderground v.1.15,2013-01-14 19:34:00,
2013-01-14 14:39:00,53.6,47.6,30.09,WNW,296,4.0,6.0,80,0.00,,,0.00,Wunderground v.1.15,2013-01-14 19:39:00,
2013-01-14 14:44:00,53.3,47.3,30.09,NNW,340,4.0,8.0,80,0.00,,,0.00,Wunderground v.1.15,2013-01-14 19:44:00,
2013-01-14 14:50:00,53.1,47.4,30.12,WSW,238,4.0,4.0,81,0.00,,,0.00,Wunderground v.1.15,2013-01-14 19:50:00,
2013-01-14 14:55:00,52.9,47.2,30.11,NNW,337,4.0,6.0,81,0.00,,,0.00,Wunderground v.1.15,2013-01-14 19:55:00,
2013-01-14 15:00:00,52.9,47.2,30.10,NE,42,3.0,3.0,81,0.00,,,0.00,Wunderground v.1.15,2013-01-14 20:00:00,
2013-01-14 15:06:00,52.8,47.5,30.11,North,350,3.0,6.0,82,0.00,,,0.00,Wunderground v.1.15,2013-01-14 20:06:00,
2013-01-14 15:12:00,52.8,47.5,30.11,NNE,15,3.0,4.0,82,0.00,,,0.00,Wunderground v.1.15,2013-01-14 20:12:00,
2013-01-14 15:18:00,52.6,46.9,30.10,NNW,334,3.0,7.0,81,0.00,,,0.00,Wunderground v.1.15,2013-01-14 20:18:00,
2013-01-14 15:23:00,52.5,46.8,30.11,NW,324,3.0,3.0,81,0.00,,,0.00,Wunderground v.1.15,2013-01-14 20:23:00,
2013-01-14 15:29:00,52.3,46.6,30.11,North,355,2.0,3.0,81,0.00,,,0.00,Wunderground v.1.15,2013-01-14 20:29:00,
2013-01-14 15:34:00,52.2,46.5,30.13,WNW,290,3.0,5.0,81,0.00,,,0.00,Wunderground v.1.15,2013-01-14 20:34:00,
2013-01-14 15:39:00,52.2,46.5,30.12,WNW,301,3.0,5.0,81,0.00,,,0.00,Wunderground v.1.15,2013-01-14 20:39:00,
2013-01-14 15:45:00,52.1,46.4,30.12,NW,304,3.0,7.0,81,0.00,,,0.00,Wunderground v.1.15,2013-01-14 20:45:00,
2013-01-14 15:50:00,51.9,45.9,30.12,WNW,292,2.0,3.0,80,0.00,,,0.00,Wunderground v.1.15,2013-01-14 20:50:00,
2013-01-14 15:56:00,51.7,46.1,30.13,NNW,348,2.0,4.0,81,0.00,,,0.00,Wunderground v.1.15,2013-01-14 20:56:00,
2013-01-14 16:01:00,51.6,45.6,30.13,NW,317,2.0,2.0,80,0.00,,,0.00,Wunderground v.1.15,2013-01-14 21:01:00,
2013-01-14 16:07:00,51.5,45.2,30.13,WNW,289,2.0,5.0,79,0.00,,,0.00,Wunderground v.1.15,2013-01-14 21:07:00,
2013-01-14 16:13:00,51.3,45.0,30.13,North,5,2.0,5.0,79,0.00,,,0.00,Wunderground v.1.15,2013-01-14 21:13:00,
2013-01-14 16:19:00,50.9,43.9,30.13,North,349,3.0,6.0,77,0.00,,,0.00,Wunderground v.1.15,2013-01-14 21:19:00,
2013-01-14 16:24:00,50.6,42.6,30.13,North,5,4.0,6.0,74,0.00,,,0.00,Wunderground v.1.15,2013-01-14 21:24:00,
2013-01-14 16:29:00,50.3,42.0,30.13,NW,320,3.0,6.0,73,0.00,,,0.00,Wunderground v.1.15,2013-01-14 21:29:00,
2013-01-14 16:35:00,50.2,41.9,30.14,NW,304,2.0,6.0,73,0.00,,,0.00,Wunderground v.1.15,2013-01-14 21:35:00,
2013-01-14 16:40:00,50.0,42.0,30.14,NW,325,2.0,2.0,74,0.00,,,0.00,Wunderground v.1.15,2013-01-14 21:40:00,
2013-01-14 16:46:00,49.9,41.6,30.14,NNW,333,2.0,3.0,73,0.00,,,0.00,Wunderground v.1.15,2013-01-14 21:46:00,
2013-01-14 16:52:00,49.8,41.5,30.15,North,5,2.0,6.0,73,0.00,,,0.00,Wunderground v.1.15,2013-01-14 21:52:00,
2013-01-14 16:58:00,49.5,41.2,30.14,NNE,30,2.0,6.0,73,0.00,,,0.00,Wunderground v.1.15,2013-01-14 21:58:00,
2013-01-14 17:04:00,49.2,40.9,30.14,NNW,329,1.0,5.0,73,0.00,,,0.00,Wunderground v.1.15,2013-01-14 22:04:00,
2013-01-14 17:09:00,48.8,39.8,30.14,NNE,19,3.0,5.0,71,0.00,,,0.00,Wunderground v.1.15,2013-01-14 22:09:00,
2013-01-14 17:15:00,48.6,40.3,30.14,NNW,327,3.0,3.0,73,0.00,,,0.00,Wunderground v.1.15,2013-01-14 22:15:00,
2013-01-14 17:21:00,48.3,39.3,30.14,NW,323,2.0,3.0,71,0.00,,,0.00,Wunderground v.1.15,2013-01-14 22:21:00,
2013-01-14 17:27:00,48.1,39.1,30.15,North,9,3.0,6.0,71,0.00,,,0.00,Wunderground v.1.15,2013-01-14 22:27:00,
2013-01-14 17:32:00,47.9,38.9,30.15,NNW,333,3.0,5.0,71,0.00,,,0.00,Wunderground v.1.15,2013-01-14 22:32:00,
2013-01-14 17:39:00,47.6,38.3,30.16,NNW,339,2.0,5.0,70,0.00,,,0.00,Wunderground v.1.15,2013-01-14 22:39:00,
2013-01-14 17:44:00,47.3,38.0,30.16,NNE,13,2.0,4.0,70,0.00,,,0.00,Wunderground v.1.15,2013-01-14 22:44:00,
2013-01-14 17:50:00,47.1,37.8,30.15,North,350,2.0,6.0,70,0.00,,,0.00,Wunderground v.1.15,2013-01-14 22:50:00,
2013-01-14 17:56:00,46.9,37.3,30.16,NNW,328,3.0,6.0,69,0.00,,,0.00,Wunderground v.1.15,2013-01-14 22:56:00,
2013-01-14 18:01:00,46.7,37.1,30.16,NW,321,2.0,2.0,69,0.00,,,0.00,Wunderground v.1.15,2013-01-14 23:01:00,
2013-01-14 18:06:00,46.7,37.4,30.16,North,360,1.0,2.0,70,0.00,,,0.00,Wunderground v.1.15,2013-01-14 23:06:00,
2013-01-14 18:12:00,46.6,37.3,30.17,WNW,299,1.0,1.0,70,0.00,,,0.00,Wunderground v.1.15,2013-01-14 23:12:00,
2013-01-14 18:18:00,46.6,38.8,30.17,ENE,61,1.0,4.0,74,0.00,,,0.00,Wunderground v.1.15,2013-01-14 23:18:00,
2013-01-14 18:24:00,46.4,37.1,30.17,North,355,2.0,3.0,70,0.00,,,0.00,Wunderground v.1.15,2013-01-14 23:24:00,
2013-01-14 18:29:00,46.2,37.3,30.16,NNE,25,1.0,4.0,71,0.00,,,0.00,Wunderground v.1.15,2013-01-14 23:29:00,
2013-01-14 18:34:00,46.1,36.9,30.17,NNW,348,1.0,3.0,70,0.00,,,0.00,Wunderground v.1.15,2013-01-14 23:34:00,
2013-01-14 18:39:00,46.0,36.8,30.17,North,350,1.0,5.0,70,0.00,,,0.00,Wunderground v.1.15,2013-01-14 23:39:00,
2013-01-14 18:44:00,45.9,37.4,30.17,ENE,58,2.0,2.0,72,0.00,,,0.00,Wunderground v.1.15,2013-01-14 23:44:00,
2013-01-14 18:50:00,45.6,35.6,30.17,North,355,2.0,2.0,68,0.00,,,0.00,Wunderground v.1.15,2013-01-14 23:50:00,
2013-01-14 18:55:00,45.5,35.9,30.18,North,5,2.0,3.0,69,0.00,,,0.00,Wunderground v.1.15,2013-01-14 23:55:00,
2013-01-14 19:00:00,45.4,35.8,30.18,NNE,20,2.0,2.0,69,0.00,,,0.00,Wunderground v.1.15,2013-01-15 00:00:00,
2013-01-14 19:06:00,45.2,35.6,30.19,NNW,339,2.0,5.0,69,0.00,,,0.00,Wunderground v.1.15,2013-01-15 00:06:00,
2013-01-14 19:11:00,45.0,35.1,30.20,North,10,2.0,2.0,68,0.00,,,0.00,Wunderground v.1.15,2013-01-15 00:11:00,
2013-01-14 19:17:00,44.9,35.0,30.20,NNE,18,2.0,5.0,68,0.00,,,0.00,Wunderground v.1.15,2013-01-15 00:17:00,
2013-01-14 19:23:00,44.7,35.1,30.21,NNE,17,3.0,5.0,69,0.00,,,0.00,Wunderground v.1.15,2013-01-15 00:23:00,
2013-01-14 19:28:00,44.5,35.0,30.21,North,355,3.0,5.0,69,0.00,,,0.00,Wunderground v.1.15,2013-01-15 00:28:00,
2013-01-14 19:34:00,44.4,34.9,30.23,NW,304,3.0,6.0,69,0.00,,,0.00,Wunderground v.1.15,2013-01-15 00:34:00,
2013-01-14 19:39:00,44.4,34.9,30.23,NW,304,3.0,6.0,69,0.00,,,0.00,Wunderground v.1.15,2013-01-15 00:39:00,
2013-01-14 19:44:00,44.3,34.4,30.23,WNW,283,3.0,3.0,68,0.00,,,0.00,Wunderground v.1.15,2013-01-15 00:44:00,
2013-01-14 19:50:00,44.1,33.1,30.23,North,9,4.0,6.0,65,0.00,,,0.00,Wunderground v.1.15,2013-01-15 00:50:00,
2013-01-14 19:55:00,43.8,33.2,30.24,NW,326,4.0,6.0,66,0.00,,,0.00,Wunderground v.1.15,2013-01-15 00:55:00,
2013-01-14 20:00:00,43.7,32.7,30.23,North,350,3.0,6.0,65,0.00,,,0.00,Wunderground v.1.15,2013-01-15 01:00:00,
2013-01-14 20:06:00,43.6,33.0,30.25,NNW,331,3.0,6.0,66,0.00,,,0.00,Wunderground v.1.15,2013-01-15 01:06:00,
2013-01-14 20:11:00,43.5,32.9,30.25,NW,317,2.0,3.0,66,0.00,,,0.00,Wunderground v.1.15,2013-01-15 01:11:00,
2013-01-14 20:17:00,43.5,33.3,30.24,NW,317,1.0,3.0,67,0.00,,,0.00,Wunderground v.1.15,2013-01-15 01:17:00,
2013-01-14 20:23:00,43.4,33.2,30.25,West,272,2.0,6.0,67,0.00,,,0.00,Wunderground v.1.15,2013-01-15 01:23:00,
2013-01-14 20:29:00,43.1,32.9,30.24,North,360,3.0,6.0,67,0.00,,,0.00,Wunderground v.1.15,2013-01-15 01:29:00,
2013-01-14 20:34:00,42.8,32.6,30.24,NW,304,4.0,6.0,67,0.00,,,0.00,Wunderground v.1.15,2013-01-15 01:34:00,
2013-01-14 20:40:00,42.6,32.4,30.24,North,5,4.0,4.0,67,0.00,,,0.00,Wunderground v.1.15,2013-01-15 01:40:00,
2013-01-14 20:45:00,42.3,32.1,30.24,NW,309,4.0,7.0,67,0.00,,,0.00,Wunderground v.1.15,2013-01-15 01:45:00,
2013-01-14 20:50:00,42.1,31.9,30.24,North,355,4.0,4.0,67,0.00,,,0.00,Wunderground v.1.15,2013-01-15 01:50:00,
2013-01-14 20:56:00,42.0,32.6,30.23,NW,307,2.0,4.0,69,0.00,,,0.00,Wunderground v.1.15,2013-01-15 01:56:00,
2013-01-14 21:01:00,41.8,32.0,30.23,North,5,2.0,3.0,68,0.00,,,0.00,Wunderground v.1.15,2013-01-15 02:01:00,
2013-01-14 21:07:00,41.5,31.7,30.24,NNE,24,3.0,5.0,68,0.00,,,0.00,Wunderground v.1.15,2013-01-15 02:07:00,
2013-01-14 21:12:00,41.2,31.1,30.24,WNW,303,4.0,11.0,67,0.00,,,0.00,Wunderground v.1.15,2013-01-15 02:12:00,
2013-01-14 21:18:00,40.9,31.5,30.26,WNW,294,5.0,11.0,69,0.00,,,0.00,Wunderground v.1.15,2013-01-15 02:18:00,
2013-01-14 21:23:00,40.6,32.3,30.25,WNW,299,4.0,6.0,72,0.00,,,0.00,Wunderground v.1.15,2013-01-15 02:23:00,
2013-01-14 21:29:00,40.1,33.8,30.23,ENE,67,4.0,9.0,78,0.00,,,0.01,Wunderground v.1.15,2013-01-15 02:29:00,
2013-01-14 21:35:00,39.3,33.6,30.25,NW,321,3.0,4.0,80,0.08,,,0.02,Wunderground v.1.15,2013-01-15 02:35:00,
2013-01-14 21:41:00,38.6,34.2,30.27,NW,315,3.0,3.0,84,0.06,,,0.02,Wunderground v.1.15,2013-01-15 02:41:00,
2013-01-14 21:46:00,38.2,34.4,30.27,NW,308,3.0,4.0,86,0.04,,,0.02,Wunderground v.1.15,2013-01-15 02:46:00,
2013-01-14 21:52:00,38.0,34.5,30.28,NW,309,2.0,2.0,87,0.04,,,0.03,Wunderground v.1.15,2013-01-15 02:52:00,
2013-01-14 21:58:00,37.9,34.7,30.27,NNE,17,1.0,2.0,88,0.11,,,0.04,Wunderground v.1.15,2013-01-15 02:58:00,
2013-01-14 22:04:00,37.7,34.5,30.26,North,9,1.0,3.0,88,0.10,,,0.05,Wunderground v.1.15,2013-01-15 03:04:00,
2013-01-14 22:09:00,37.6,34.7,30.26,North,5,1.0,3.0,89,0.07,,,0.05,Wunderground v.1.15,2013-01-15 03:09:00,
2013-01-14 22:14:00,37.5,34.3,30.27,North,360,1.0,5.0,88,0.04,,,0.05,Wunderground v.1.15,2013-01-15 03:14:00,
2013-01-14 22:20:00,37.3,33.8,30.27,North,5,2.0,2.0,87,0.00,,,0.05,Wunderground v.1.15,2013-01-15 03:20:00,
2013-01-14 22:25:00,37.0,33.2,30.27,NNE,12,3.0,4.0,86,0.00,,,0.06,Wunderground v.1.15,2013-01-15 03:25:00,
2013-01-14 22:31:00,36.7,32.9,30.26,North,5,2.0,3.0,86,0.00,,,0.06,Wunderground v.1.15,2013-01-15 03:31:00,
2013-01-14 22:36:00,36.6,33.4,30.26,NNW,337,2.0,4.0,88,0.00,,,0.06,Wunderground v.1.15,2013-01-15 03:36:00,
2013-01-14 22:42:00,36.5,33.3,30.26,NNW,347,2.0,4.0,88,0.00,,,0.06,Wunderground v.1.15,2013-01-15 03:42:00,
2013-01-14 22:47:00,36.4,33.2,30.25,NW,325,2.0,4.0,88,0.00,,,0.06,Wunderground v.1.15,2013-01-15 03:47:00,
2013-01-14 22:54:00,36.4,33.5,30.26,NNW,342,2.0,4.0,89,0.00,,,0.06,Wunderground v.1.15,2013-01-15 03:54:00,
2013-01-14 22:59:00,36.4,33.5,30.27,North,360,2.0,4.0,89,0.00,,,0.06,Wunderground v.1.15,2013-01-15 03:59:00,
2013-01-14 23:04:00,36.5,33.6,30.26,NW,310,1.0,2.0,89,0.00,,,0.06,Wunderground v.1.15,2013-01-15 04:04:00,
2013-01-14 23:10:00,36.6,33.7,30.26,NW,321,0.0,0.0,89,0.00,,,0.06,Wunderground v.1.15,2013-01-15 04:10:00,
2013-01-14 23:15:00,36.7,33.8,30.26,NNW,338,1.0,2.0,89,0.00,,,0.06,Wunderground v.1.15,2013-01-15 04:15:00,
2013-01-14 23:21:00,36.7,33.5,30.26,NW,316,1.0,1.0,88,0.00,,,0.06,Wunderground v.1.15,2013-01-15 04:21:00,
2013-01-14 23:27:00,36.7,33.8,30.27,NW,309,1.0,2.0,89,0.00,,,0.06,Wunderground v.1.15,2013-01-15 04:27:00,
2013-01-14 23:34:00,36.8,33.6,30.27,NW,321,1.0,3.0,88,0.00,,,0.06,Wunderground v.1.15,2013-01-15 04:34:00,
2013-01-14 23:39:00,36.7,33.2,30.27,WNW,297,1.0,3.0,87,0.00,,,0.06,Wunderground v.1.15,2013-01-15 04:39:00,
2013-01-14 23:44:00,36.7,32.9,30.27,NW,315,2.0,6.0,86,0.00,,,0.06,Wunderground v.1.15,2013-01-15 04:44:00,
2013-01-14 23:50:00,36.5,33.0,30.27,NW,321,2.0,3.0,87,0.00,,,0.06,Wunderground v.1.15,2013-01-15 04:50:00,
2013-01-14 23:55:00,36.3,32.5,30.27,NW,319,2.0,4.0,86,0.00,,,0.07,Wunderground v.1.15,2013-01-15 04:55:00,